Terminal Aerodrome Forecast
Issued by NWS Wilmington, OH

Current Version | Previous Version | Graphics & Text | Print | Product List | Glossary On
Versions: 1 2 3 4 5 6 7 8 9 10 11 12 13 14 15 16 17 18 19 20 21 22 23 24 25 26 27 28 29 30 31 32 33
000
FTUS41 KILN 022300
TAFCVG
TAF
KCVG 022320Z 0300/0406 11005KT P6SM VCSH BKN040
      TEMPO 0300/0302 5SM -SHRA BR OVC025
     FM030300 09008KT 5SM BR SCT025 BKN050
     FM030800 07007KT 2SM BR OVC012
     FM031400 06007KT 5SM BR VCSH BKN025 OVC040
     FM031800 04008KT P6SM VCSH BKN040=

USA.gov is the U.S. government's official web portal to all federal, state and local government web resources and services.